createdAt,value
2018-11-06T00:01:13.125Z,12.83
2018-11-06T00:03:48.698Z,12.57
2018-11-06T00:06:17.235Z,12.77
2018-11-06T00:08:45.713Z,12.60
2018-11-06T00:11:14.228Z,12.07
2018-11-06T00:13:42.807Z,12.97
2018-11-06T00:16:11.283Z,12.80
2018-11-06T00:18:40.008Z,12.67
2018-11-06T00:21:08.650Z,12.17
2018-11-06T00:23:37.196Z,11.93
2018-11-06T00:26:05.850Z,11.70
2018-11-06T00:28:36.499Z,12.57
2018-11-06T00:31:05.553Z,12.30
2018-11-06T00:33:34.095Z,13.60
2018-11-06T00:36:02.580Z,12.43
2018-11-06T00:38:31.460Z,12.30
2018-11-06T00:41:00.264Z,12.13
2018-11-06T00:43:28.954Z,12.47
2018-11-06T00:45:58.464Z,12.47
2018-11-06T00:48:26.911Z,12.53
2018-11-06T00:50:55.748Z,12.30
2018-11-06T00:53:24.354Z,12.10
2018-11-06T00:55:53.099Z,12.30
2018-11-06T00:58:22.672Z,12.40
2018-11-06T01:00:51.325Z,12.70
2018-11-06T01:03:19.950Z,12.00
2018-11-06T01:05:48.518Z,12.70
2018-11-06T01:08:17.147Z,11.93
2018-11-06T01:10:45.884Z,12.40
2018-11-06T01:13:14.372Z,12.23
2018-11-06T01:15:43.008Z,12.50
2018-11-06T01:18:11.617Z,12.40
2018-11-06T01:20:40.383Z,12.40
2018-11-06T01:23:10.032Z,12.63
2018-11-06T01:25:38.678Z,11.63
2018-11-06T01:28:07.214Z,12.07
2018-11-06T01:30:35.735Z,12.37
2018-11-06T01:33:04.602Z,12.43
2018-11-06T01:35:33.078Z,11.93
2018-11-06T01:38:01.575Z,12.17
2018-11-06T01:40:30.289Z,12.30
2018-11-06T01:42:58.966Z,12.27
2018-11-06T01:45:28.164Z,12.50
2018-11-06T01:47:56.750Z,12.87
2018-11-06T01:50:25.249Z,12.20
2018-11-06T01:52:53.673Z,11.83
2018-11-06T01:55:23.387Z,12.43
2018-11-06T01:57:51.961Z,12.87
2018-11-06T02:00:20.786Z,12.07
2018-11-06T02:02:49.510Z,12.23
2018-11-06T02:05:18.861Z,13.20
2018-11-06T02:07:49.522Z,12.03
2018-11-06T02:10:19.339Z,12.53
2018-11-06T02:12:48.470Z,12.73
2018-11-06T02:15:16.922Z,12.07
2018-11-06T02:17:46.086Z,12.77
2018-11-06T02:20:15.332Z,11.83
2018-11-06T02:22:44.504Z,12.17
2018-11-06T02:25:14.105Z,12.40
2018-11-06T02:27:42.571Z,11.73
2018-11-06T02:30:13.187Z,12.23
2018-11-06T02:32:42.584Z,12.27
2018-11-06T02:35:11.047Z,12.33
2018-11-06T02:37:39.766Z,13.77
2018-11-06T02:40:10.050Z,11.33
2018-11-06T02:42:38.543Z,12.33
2018-11-06T02:45:08.716Z,12.67
2018-11-06T02:47:37.187Z,12.93
2018-11-06T02:50:06.418Z,12.93
2018-11-06T02:52:34.924Z,13.10
2018-11-06T02:55:03.478Z,12.37
2018-11-06T02:57:31.931Z,12.57
2018-11-06T03:00:00.698Z,12.27
2018-11-06T03:02:29.541Z,13.17
2018-11-06T03:04:58.046Z,12.67
2018-11-06T03:07:26.560Z,13.00
2018-11-06T03:09:55.185Z,12.83
2018-11-06T03:12:23.608Z,15.07
2018-11-06T03:14:53.328Z,13.57
2018-11-06T03:17:21.964Z,13.50
2018-11-06T03:19:50.374Z,13.70
2018-11-06T03:22:18.913Z,13.78
2018-11-06T03:24:48.042Z,13.47
2018-11-06T03:27:16.749Z,12.83
2018-11-06T03:29:45.453Z,13.97
2018-11-06T03:32:13.954Z,12.90
2018-11-06T03:34:42.427Z,14.37
2018-11-06T03:37:11.075Z,13.63
2018-11-06T03:39:39.813Z,13.60
2018-11-06T03:42:08.433Z,12.77
2018-11-06T03:44:36.910Z,14.17
2018-11-06T03:47:06.431Z,13.47
2018-11-06T03:49:35.017Z,13.07
2018-11-06T03:52:03.670Z,12.77
2018-11-06T03:54:32.236Z,12.70
2018-11-06T03:57:00.731Z,12.33
2018-11-06T03:59:29.429Z,12.87
2018-11-06T04:01:59.114Z,11.80
2018-11-06T04:04:27.994Z,10.90
2018-11-06T04:06:56.771Z,11.97
2018-11-06T04:11:59.045Z,11.47
2018-11-06T04:14:27.518Z,10.70
2018-11-06T04:16:56.213Z,11.40
2018-11-06T04:19:24.712Z,11.03
2018-11-06T04:21:53.420Z,11.67
2018-11-06T04:24:22.120Z,11.67
2018-11-06T04:26:50.829Z,10.60
2018-11-06T04:29:19.414Z,10.43
2018-11-06T04:31:48.045Z,11.13
2018-11-06T04:34:16.798Z,10.77
2018-11-06T04:36:45.377Z,10.83
2018-11-06T04:39:14.096Z,10.50
2018-11-06T04:41:43.119Z,11.10
2018-11-06T04:44:11.644Z,11.20
2018-11-06T04:46:40.180Z,11.50
2018-11-06T04:49:08.694Z,11.43
2018-11-06T04:51:37.659Z,10.63
2018-11-06T04:54:06.357Z,10.80
2018-11-06T04:56:34.986Z,11.30
2018-11-06T04:59:05.154Z,11.77
2018-11-06T05:01:33.665Z,11.67
2018-11-06T05:04:02.157Z,11.07
2018-11-06T05:06:30.645Z,11.73
2018-11-06T05:08:59.106Z,11.63
2018-11-06T05:11:27.712Z,11.13
2018-11-06T05:13:56.254Z,12.07
2018-11-06T05:16:24.884Z,11.40
2018-11-06T05:18:53.322Z,11.40
2018-11-06T05:21:21.902Z,10.83
2018-11-06T05:23:50.373Z,11.47
2018-11-06T05:26:19.040Z,11.93
2018-11-06T05:28:47.522Z,12.13
2018-11-06T05:31:16.090Z,11.43
2018-11-06T05:33:44.603Z,11.47
2018-11-06T05:36:13.458Z,11.80
2018-11-06T05:38:41.976Z,11.83
2018-11-06T05:41:10.676Z,11.78
2018-11-06T05:43:40.015Z,12.20
2018-11-06T05:46:10.564Z,12.70
2018-11-06T05:48:39.147Z,13.33
2018-11-06T05:51:07.685Z,13.60
2018-11-06T05:53:38.223Z,12.37
2018-11-06T05:56:06.829Z,12.70
2018-11-06T05:58:35.437Z,13.70
2018-11-06T06:01:04.045Z,13.45
2018-11-06T06:03:32.723Z,13.63
2018-11-06T06:06:01.259Z,13.60
2018-11-06T06:08:29.666Z,14.23
2018-11-06T06:10:58.285Z,13.83
2018-11-06T06:13:26.993Z,13.07
2018-11-06T06:15:55.752Z,13.80
2018-11-06T06:18:24.524Z,12.23
2018-11-06T06:20:53.192Z,13.88
2018-11-06T06:23:21.906Z,13.30
2018-11-06T06:25:50.675Z,13.20
2018-11-06T06:28:19.317Z,13.10
2018-11-06T06:30:48.399Z,13.27
2018-11-06T06:33:16.960Z,13.47
2018-11-06T06:35:45.450Z,13.73
2018-11-06T06:38:13.971Z,13.40
2018-11-06T06:40:42.588Z,13.03
2018-11-06T06:43:11.089Z,13.33
2018-11-06T06:45:39.909Z,13.77
2018-11-06T06:48:08.436Z,13.37
2018-11-06T06:50:36.978Z,13.53
2018-11-06T06:53:05.773Z,13.40
2018-11-06T06:55:34.557Z,14.00
2018-11-06T06:58:03.143Z,13.60
2018-11-06T07:00:31.631Z,13.40
2018-11-06T07:03:00.099Z,13.30
2018-11-06T07:05:29.674Z,13.47
2018-11-06T07:07:58.397Z,14.20
2018-11-06T07:10:27.379Z,15.10
2018-11-06T07:13:07.762Z,14.47
2018-11-06T07:15:36.977Z,15.20
2018-11-06T07:18:05.991Z,15.57
2018-11-06T07:20:35.065Z,15.20
2018-11-06T07:23:03.558Z,14.23
2018-11-06T07:25:32.230Z,15.20
2018-11-06T07:28:00.805Z,14.97
2018-11-06T07:30:29.378Z,14.63
2018-11-06T07:32:57.789Z,13.60
2018-11-06T07:35:26.406Z,15.20
2018-11-06T07:37:54.898Z,13.87
2018-11-06T07:40:23.552Z,13.90
2018-11-06T07:42:52.101Z,14.00
2018-11-06T07:45:22.012Z,15.17
2018-11-06T07:47:50.535Z,13.13
2018-11-06T07:50:19.521Z,14.33
2018-11-06T07:52:48.148Z,13.43
2018-11-06T07:55:18.388Z,13.27
2018-11-06T07:57:47.098Z,12.67
2018-11-06T08:00:21.419Z,12.20
2018-11-06T08:02:50.326Z,13.17
2018-11-06T08:05:19.227Z,11.87
2018-11-06T08:07:48.617Z,12.20
2018-11-06T08:10:17.267Z,12.13
2018-11-06T08:12:47.111Z,12.20
2018-11-06T08:15:15.932Z,11.90
2018-11-06T08:17:45.507Z,11.47
2018-11-06T08:20:14.490Z,12.30
2018-11-06T08:22:42.946Z,12.07
2018-11-06T08:25:12.893Z,11.80
2018-11-06T08:27:42.213Z,11.80
2018-11-06T08:30:11.508Z,11.40
2018-11-06T08:32:40.577Z,11.87
2018-11-06T08:35:11.334Z,11.43
2018-11-06T08:37:39.831Z,11.73
2018-11-06T08:40:09.399Z,12.03
2018-11-06T08:42:38.173Z,12.00
2018-11-06T08:45:08.192Z,12.60
2018-11-06T08:47:36.645Z,12.13
2018-11-06T08:50:06.190Z,12.37
2018-11-06T08:52:35.206Z,11.47
2018-11-06T08:55:04.037Z,11.33
2018-11-06T08:57:32.490Z,11.77
2018-11-06T09:00:01.068Z,12.03
2018-11-06T09:02:30.682Z,11.83
2018-11-06T09:04:59.670Z,12.37
2018-11-06T09:07:28.229Z,12.27
2018-11-06T09:09:56.959Z,11.40
2018-11-06T09:12:25.509Z,12.00
2018-11-06T09:14:54.227Z,11.77
2018-11-06T09:17:22.790Z,12.13
2018-11-06T09:19:51.314Z,12.13
2018-11-06T09:22:19.905Z,11.80
2018-11-06T09:24:48.627Z,12.10
2018-11-06T09:27:17.113Z,11.40
2018-11-06T09:29:45.652Z,11.57
2018-11-06T09:32:14.221Z,11.63
2018-11-06T09:34:42.850Z,12.60
2018-11-06T09:37:11.568Z,11.80
2018-11-06T09:39:40.169Z,11.77
2018-11-06T09:42:09.784Z,11.43
2018-11-06T09:44:38.238Z,11.40
2018-11-06T09:47:06.889Z,12.10
2018-11-06T09:49:35.545Z,11.37
2018-11-06T09:52:04.179Z,12.67
2018-11-06T09:54:32.689Z,12.10
2018-11-06T09:57:01.404Z,11.07
2018-11-06T09:59:30.226Z,11.20
2018-11-06T10:01:59.006Z,11.70
2018-11-06T10:04:27.574Z,12.10
2018-11-06T10:06:56.404Z,11.27
2018-11-06T10:09:24.735Z,11.90
2018-11-06T10:11:53.638Z,13.60
2018-11-06T10:14:22.226Z,12.20
2018-11-06T10:16:50.878Z,12.40
2018-11-06T10:19:19.395Z,12.00
2018-11-06T10:21:47.880Z,12.63
2018-11-06T10:24:16.614Z,13.70
2018-11-06T10:26:45.328Z,12.63
2018-11-06T10:29:13.974Z,13.00
2018-11-06T10:31:42.493Z,11.60
2018-11-06T10:34:11.613Z,12.00
2018-11-06T10:36:40.180Z,11.93
2018-11-06T10:39:11.316Z,12.20
2018-11-06T10:41:40.036Z,11.70
2018-11-06T10:44:08.876Z,11.60
2018-11-06T10:46:37.564Z,11.60
2018-11-06T10:49:07.321Z,10.70
2018-11-06T10:51:35.887Z,11.80
2018-11-06T10:54:04.480Z,11.10
2018-11-06T10:56:33.555Z,11.47
2018-11-06T10:59:02.207Z,10.83
2018-11-06T11:01:35.924Z,11.97
2018-11-06T11:04:10.385Z,11.63
2018-11-06T11:06:39.275Z,11.77
2018-11-06T11:09:09.596Z,11.57
2018-11-06T11:11:38.291Z,12.17
2018-11-06T11:14:07.548Z,11.13
2018-11-06T11:16:36.271Z,11.77
2018-11-06T11:19:05.303Z,12.90
2018-11-06T11:21:34.058Z,11.33
2018-11-06T11:24:02.948Z,11.60
2018-11-06T11:29:04.194Z,11.30
2018-11-06T11:31:32.706Z,11.07
2018-11-06T11:34:01.419Z,11.17
2018-11-06T11:36:30.301Z,11.23
2018-11-06T11:38:58.861Z,11.53
2018-11-06T11:41:27.373Z,11.13
2018-11-06T11:43:55.890Z,12.20
2018-11-06T11:46:24.464Z,11.13
2018-11-06T11:48:53.041Z,12.00
2018-11-06T11:51:21.478Z,11.23
2018-11-06T11:53:51.070Z,11.53
2018-11-06T11:56:19.719Z,10.90
2018-11-06T11:58:48.330Z,10.90
2018-11-06T12:01:17.108Z,10.43
2018-11-06T12:03:45.694Z,10.97
2018-11-06T12:06:14.289Z,10.20
2018-11-06T12:10:13.381Z,11.00
2018-11-06T12:12:42.163Z,10.70
2018-11-06T12:15:14.077Z,10.67
2018-11-06T12:17:43.534Z,11.13
2018-11-06T12:20:12.868Z,10.43
2018-11-06T12:22:42.069Z,10.27
2018-11-06T12:25:11.177Z,10.83
2018-11-06T12:27:39.913Z,10.50
2018-11-06T12:30:10.570Z,10.87
2018-11-06T12:32:39.767Z,11.78
2018-11-06T12:35:09.517Z,10.83
2018-11-06T12:37:38.602Z,10.35
2018-11-06T12:40:08.644Z,10.40
2018-11-06T12:42:37.769Z,11.33
2018-11-06T12:45:08.122Z,10.80
2018-11-06T12:47:36.926Z,10.82
2018-11-06T12:50:05.962Z,13.15
2018-11-06T12:52:34.534Z,10.80
2018-11-06T12:55:03.218Z,11.18
2018-11-06T12:57:32.065Z,11.10
2018-11-06T13:00:01.830Z,11.12
2018-11-06T13:02:30.638Z,10.13
2018-11-06T13:04:59.269Z,10.58
2018-11-06T13:07:28.036Z,10.58
2018-11-06T13:09:56.773Z,9.73
2018-11-06T13:12:26.043Z,10.32
2018-11-06T13:14:55.258Z,10.00
2018-11-06T13:17:23.280Z,10.82
2018-11-06T13:19:53.042Z,10.25
2018-11-06T13:22:21.671Z,9.78
2018-11-06T13:24:50.525Z,10.63
2018-11-06T13:27:19.169Z,10.50
2018-11-06T13:29:47.814Z,10.00
2018-11-06T13:32:16.466Z,10.15
2018-11-06T13:34:44.990Z,10.43
2018-11-06T13:37:13.582Z,10.75
2018-11-06T13:39:42.259Z,11.38
2018-11-06T13:42:11.021Z,12.10
2018-11-06T13:44:40.258Z,12.33
2018-11-06T13:47:08.538Z,12.43
2018-11-06T13:49:37.255Z,12.35
2018-11-06T13:52:06.238Z,11.83
2018-11-06T13:54:35.034Z,11.83
2018-11-06T13:57:04.162Z,12.05
2018-11-06T13:59:32.866Z,13.20
2018-11-06T14:02:02.023Z,12.37
2018-11-06T14:04:30.565Z,12.70
2018-11-06T14:06:59.289Z,11.88
2018-11-06T14:09:28.072Z,12.68
2018-11-06T14:11:56.899Z,11.55
2018-11-06T14:14:26.148Z,12.90
2018-11-06T14:16:54.833Z,11.50
2018-11-06T14:19:23.501Z,11.00
2018-11-06T14:21:52.550Z,12.10
2018-11-06T14:24:21.532Z,12.73
2018-11-06T14:26:50.395Z,12.73
2018-11-06T14:29:19.018Z,12.87
2018-11-06T14:31:47.555Z,11.87
2018-11-06T14:34:17.084Z,12.30
2018-11-06T14:36:45.610Z,12.43
2018-11-06T14:39:14.153Z,12.63
2018-11-06T14:41:42.887Z,13.07
2018-11-06T14:44:11.447Z,13.87
2018-11-06T14:46:39.959Z,12.60
2018-11-06T14:49:08.688Z,12.67
2018-11-06T14:51:37.207Z,12.83
2018-11-06T14:54:06.227Z,12.83
2018-11-06T14:56:34.743Z,12.27
2018-11-06T14:59:03.287Z,14.10
2018-11-06T15:01:32.018Z,12.43
2018-11-06T15:04:00.510Z,11.17
2018-11-06T15:06:29.072Z,10.90
2018-11-06T15:08:57.581Z,10.97
2018-11-06T15:11:27.235Z,10.77
2018-11-06T15:13:55.774Z,11.70
2018-11-06T15:16:30.079Z,11.50
2018-11-06T15:19:00.238Z,11.60
2018-11-06T15:21:30.301Z,13.63
2018-11-06T15:23:58.985Z,24.93
2018-11-06T15:26:27.859Z,27.23
2018-11-06T15:28:57.528Z,24.37
2018-11-06T15:31:26.556Z,19.43
2018-11-06T15:33:55.974Z,20.17
2018-11-06T15:36:27.093Z,12.50
2018-11-06T15:38:55.853Z,13.23
2018-11-06T15:41:25.525Z,13.63
2018-11-06T15:43:54.387Z,13.33
2018-11-06T15:46:24.986Z,12.50
2018-11-06T15:48:54.927Z,11.83
2018-11-06T15:51:23.886Z,11.93
2018-11-06T15:53:52.903Z,11.30
2018-11-06T15:56:22.286Z,10.53
2018-11-06T15:58:53.159Z,12.97
2018-11-06T16:01:21.860Z,15.93
2018-11-06T16:03:51.159Z,13.53
2018-11-06T16:06:22.530Z,12.27
2018-11-06T16:08:53.067Z,11.13
2018-11-06T16:11:22.243Z,11.97
2018-11-06T16:13:51.008Z,13.50
2018-11-06T16:16:19.732Z,12.03
2018-11-06T16:18:50.027Z,11.37
2018-11-06T16:21:19.045Z,12.50
2018-11-06T16:23:47.542Z,12.83
2018-11-06T16:26:16.364Z,11.53
2018-11-06T16:28:45.603Z,12.60
2018-11-06T16:31:14.531Z,12.50
2018-11-06T16:33:43.207Z,12.67
2018-11-06T16:36:11.738Z,13.07
2018-11-06T16:38:40.495Z,12.80
2018-11-06T16:41:09.134Z,11.60
2018-11-06T16:43:38.145Z,12.00
2018-11-06T16:46:07.134Z,11.37
2018-11-06T16:48:36.795Z,10.57
2018-11-06T16:51:05.831Z,9.73
2018-11-06T16:53:34.350Z,9.90
2018-11-06T16:56:02.972Z,9.70
2018-11-06T16:58:31.597Z,9.60
2018-11-06T17:01:00.294Z,8.73
2018-11-06T17:03:29.661Z,9.10
2018-11-06T17:05:58.157Z,9.13
2018-11-06T17:08:26.792Z,9.30
2018-11-06T17:10:55.336Z,9.23
2018-11-06T17:13:23.905Z,10.50
2018-11-06T17:15:52.391Z,10.30
2018-11-06T17:18:21.270Z,10.83
2018-11-06T17:20:49.878Z,16.00
2018-11-06T17:23:18.485Z,12.03
2018-11-06T17:25:47.138Z,12.43
2018-11-06T17:28:15.844Z,13.73
2018-11-06T17:30:44.518Z,12.07
2018-11-06T17:33:13.177Z,12.47
2018-11-06T17:35:41.761Z,11.67
2018-11-06T17:38:10.463Z,12.77
2018-11-06T17:40:39.250Z,11.93
2018-11-06T17:43:08.111Z,12.47
2018-11-06T17:45:36.971Z,10.83
2018-11-06T17:48:05.849Z,12.10
2018-11-06T17:50:34.466Z,12.33
2018-11-06T17:53:03.090Z,12.23
2018-11-06T17:55:31.678Z,12.40
2018-11-06T17:58:00.351Z,12.00
2018-11-06T18:00:29.125Z,12.13
2018-11-06T18:02:58.051Z,13.20
2018-11-06T18:05:26.890Z,12.37
2018-11-06T18:07:55.451Z,13.00
2018-11-06T18:10:24.277Z,12.33
2018-11-06T18:12:52.742Z,12.93
2018-11-06T18:15:21.511Z,15.50
2018-11-06T18:17:50.551Z,16.63
2018-11-06T18:20:19.141Z,15.30
2018-11-06T18:22:47.800Z,15.13
2018-11-06T18:25:16.809Z,13.10
2018-11-06T18:27:45.172Z,14.97
2018-11-06T18:30:16.126Z,14.70
2018-11-06T18:32:44.888Z,14.47
2018-11-06T18:35:14.751Z,15.90
2018-11-06T18:37:43.523Z,16.23
2018-11-06T18:40:14.644Z,16.63
2018-11-06T18:42:44.395Z,16.40
2018-11-06T18:45:13.420Z,17.53
2018-11-06T18:47:42.013Z,17.53
2018-11-06T18:50:12.519Z,16.77
2018-11-06T18:52:42.267Z,17.23
2018-11-06T18:55:10.968Z,17.00
2018-11-06T18:57:39.884Z,18.23
2018-11-06T19:00:11.890Z,18.13
2018-11-06T19:02:40.594Z,18.97
2018-11-06T19:05:09.131Z,19.83
2018-11-06T19:08:29.666Z,21.83
2018-11-06T19:10:58.749Z,21.90
2018-11-06T19:13:27.248Z,22.77
2018-11-06T19:15:56.898Z,21.57
2018-11-06T19:18:25.574Z,20.70
2018-11-06T19:20:54.179Z,19.63
2018-11-06T19:23:22.601Z,18.53
2018-11-06T19:25:51.722Z,17.57
2018-11-06T19:28:20.423Z,17.07
2018-11-06T19:30:49.028Z,16.40
2018-11-06T19:33:17.778Z,16.73
2018-11-06T19:35:46.242Z,17.80
2018-11-06T19:38:14.722Z,17.30
2018-11-06T19:40:43.460Z,17.33
2018-11-06T19:43:11.996Z,17.53
2018-11-06T19:45:40.579Z,18.43
2018-11-06T19:48:09.097Z,17.83
2018-11-06T19:50:38.289Z,18.67
2018-11-06T19:53:06.743Z,19.67
2018-11-06T19:55:35.511Z,20.23
2018-11-06T19:58:04.095Z,18.70
2018-11-06T20:00:32.788Z,18.93
2018-11-06T20:03:01.423Z,18.57
2018-11-06T20:05:30.225Z,20.23
2018-11-06T20:08:00.649Z,19.20
2018-11-06T20:10:29.232Z,19.43
2018-11-06T20:12:58.033Z,18.57
2018-11-06T20:15:26.648Z,18.87
2018-11-06T20:17:56.093Z,18.97
2018-11-06T20:20:26.239Z,18.77
2018-11-06T20:22:56.115Z,18.17
2018-11-06T20:25:25.832Z,18.47
2018-11-06T20:27:54.439Z,17.47
2018-11-06T20:30:24.557Z,18.33
2018-11-06T20:32:53.249Z,16.67
2018-11-06T20:35:21.876Z,17.50
2018-11-06T20:37:50.490Z,17.87
2018-11-06T20:40:21.461Z,16.47
2018-11-06T20:42:50.148Z,16.03
2018-11-06T20:45:19.631Z,17.20
2018-11-06T20:47:48.198Z,16.60
2018-11-06T20:50:19.225Z,16.37
2018-11-06T20:52:48.209Z,16.93
2018-11-06T20:55:17.654Z,16.97
2018-11-06T20:57:46.402Z,17.47
2018-11-06T21:00:23.815Z,17.83
2018-11-06T21:02:53.460Z,17.83
2018-11-06T21:05:21.997Z,16.97
2018-11-06T21:07:51.532Z,16.93
2018-11-06T21:10:21.627Z,16.93
2018-11-06T21:12:50.197Z,17.80
2018-11-06T21:15:18.645Z,16.87
2018-11-06T21:17:48.524Z,17.50
2018-11-06T21:20:17.653Z,18.00
2018-11-06T21:22:46.468Z,17.07
2018-11-06T21:25:15.235Z,17.23
2018-11-06T21:27:44.041Z,17.73
2018-11-06T21:30:14.877Z,16.83
2018-11-06T21:32:44.797Z,17.87
2018-11-06T21:35:19.910Z,16.73
2018-11-06T21:37:48.523Z,17.37
2018-11-06T21:40:19.342Z,17.50
2018-11-06T21:42:48.405Z,17.30
2018-11-06T21:45:17.512Z,17.03
2018-11-06T21:47:46.768Z,17.47
2018-11-06T21:50:16.208Z,17.53
2018-11-06T21:52:44.798Z,16.93
2018-11-06T21:55:15.518Z,16.10
2018-11-06T21:57:44.126Z,16.30
2018-11-06T22:00:15.542Z,16.27
2018-11-06T22:02:44.049Z,16.20
2018-11-06T22:05:13.719Z,15.27
2018-11-06T22:07:42.627Z,14.73
2018-11-06T22:10:12.826Z,16.30
2018-11-06T22:12:42.599Z,16.77
2018-11-06T22:15:12.221Z,16.07
2018-11-06T22:17:41.171Z,16.33
2018-11-06T22:20:11.878Z,14.73
2018-11-06T22:22:40.852Z,17.43
2018-11-06T22:25:09.350Z,15.23
2018-11-06T22:27:38.130Z,14.37
2018-11-06T22:30:08.464Z,14.27
2018-11-06T22:32:37.040Z,14.40
2018-11-06T22:35:07.006Z,12.70
2018-11-06T22:37:35.804Z,14.27
2018-11-06T22:40:05.459Z,13.03
2018-11-06T22:42:34.990Z,14.10
2018-11-06T22:45:05.411Z,14.07
2018-11-06T22:47:34.000Z,13.63
2018-11-06T22:50:02.490Z,13.47
2018-11-06T22:52:31.024Z,12.93
2018-11-06T22:54:59.607Z,13.03
2018-11-06T22:57:29.164Z,12.67
2018-11-06T22:59:57.756Z,13.60
2018-11-06T23:02:26.385Z,13.07
2018-11-06T23:04:55.065Z,13.50
2018-11-06T23:07:28.986Z,13.97
2018-11-06T23:09:58.154Z,13.57
2018-11-06T23:12:26.703Z,14.03
2018-11-06T23:14:55.313Z,12.93
2018-11-06T23:17:23.972Z,13.07
2018-11-06T23:19:52.733Z,13.80
2018-11-06T23:22:21.402Z,14.57
2018-11-06T23:24:49.888Z,14.00
2018-11-06T23:27:18.424Z,14.80
2018-11-06T23:29:46.983Z,14.17
2018-11-06T23:32:15.598Z,14.03
2018-11-06T23:34:44.085Z,14.27
2018-11-06T23:37:12.724Z,14.43
2018-11-06T23:39:41.143Z,14.33
2018-11-06T23:42:09.906Z,14.20
2018-11-06T23:44:38.359Z,14.60
2018-11-06T23:47:07.126Z,13.87
2018-11-06T23:49:35.940Z,13.97
2018-11-06T23:52:04.672Z,14.13
2018-11-06T23:54:33.308Z,13.60
2018-11-06T23:57:02.047Z,14.23
2018-11-06T23:59:30.767Z,13.93
